sensor_id;sensor_type;location;lat;lon;timestamp;pressure;altitude;pressure_sealevel;temperature;humidity
59757;BME280;45631;51.962;5.974;2023-08-06T00:01:45;100293.66;;;15.11;100.00
59757;BME280;45631;51.962;5.974;2023-08-06T00:04:13;100292.13;;;15.08;100.00
59757;BME280;45631;51.962;5.974;2023-08-06T00:06:42;100296.44;;;15.09;100.00
59757;BME280;45631;51.962;5.974;2023-08-06T00:09:12;100292.00;;;15.10;100.00
59757;BME280;45631;51.962;5.974;2023-08-06T00:11:40;100298.25;;;15.09;100.00
59757;BME280;45631;51.962;5.974;2023-08-06T00:14:10;100288.50;;;15.09;100.00
59757;BME280;45631;51.962;5.974;2023-08-06T00:16:39;100286.69;;;15.10;100.00
59757;BME280;45631;51.962;5.974;2023-08-06T00:19:07;100282.66;;;15.06;100.00
59757;BME280;45631;51.962;5.974;2023-08-06T00:21:35;100284.47;;;15.05;100.00
59757;BME280;45631;51.962;5.974;2023-08-06T00:24:05;100283.19;;;15.09;100.00
59757;BME280;45631;51.962;5.974;2023-08-06T00:26:35;100273.47;;;15.10;100.00
59757;BME280;45631;51.962;5.974;2023-08-06T00:29:03;100280.84;;;15.06;100.00
59757;BME280;45631;51.962;5.974;2023-08-06T00:31:32;100277.22;;;15.07;100.00
59757;BME280;45631;51.962;5.974;2023-08-06T00:34:00;100278.47;;;15.03;100.00
59757;BME280;45631;51.962;5.974;2023-08-06T00:36:28;100274.31;;;15.00;100.00
59757;BME280;45631;51.962;5.974;2023-08-06T00:38:56;100285.59;;;15.02;100.00
59757;BME280;45631;51.962;5.974;2023-08-06T00:41:25;100284.78;;;14.92;100.00
59757;BME280;45631;51.962;5.974;2023-08-06T00:43:54;100274.84;;;14.94;100.00
59757;BME280;45631;51.962;5.974;2023-08-06T00:46:23;100277.25;;;14.97;100.00
59757;BME280;45631;51.962;5.974;2023-08-06T00:48:51;100278.78;;;15.00;100.00
59757;BME280;45631;51.962;5.974;2023-08-06T00:51:20;100278.91;;;14.88;100.00
59757;BME280;45631;51.962;5.974;2023-08-06T00:53:49;100276.00;;;14.82;100.00
59757;BME280;45631;51.962;5.974;2023-08-06T00:56:18;100292.31;;;14.77;100.00
59757;BME280;45631;51.962;5.974;2023-08-06T00:58:47;100282.69;;;14.76;100.00
59757;BME280;45631;51.962;5.974;2023-08-06T01:01:16;100284.22;;;14.79;100.00
59757;BME280;45631;51.962;5.974;2023-08-06T01:03:46;100287.84;;;14.78;100.00
59757;BME280;45631;51.962;5.974;2023-08-06T01:06:17;100292.47;;;14.76;100.00
59757;BME280;45631;51.962;5.974;2023-08-06T01:08:55;100291.34;;;14.78;100.00
59757;BME280;45631;51.962;5.974;2023-08-06T01:11:29;100280.03;;;14.76;100.00
59757;BME280;45631;51.962;5.974;2023-08-06T01:14:03;100276.28;;;14.79;100.00
59757;BME280;45631;51.962;5.974;2023-08-06T01:16:38;100277.81;;;14.81;100.00
59757;BME280;45631;51.962;5.974;2023-08-06T01:19:16;100272.22;;;14.84;100.00
59757;BME280;45631;51.962;5.974;2023-08-06T01:21:46;100276.41;;;14.87;100.00
59757;BME280;45631;51.962;5.974;2023-08-06T01:24:14;100271.13;;;14.87;100.00
59757;BME280;45631;51.962;5.974;2023-08-06T01:26:46;100268.47;;;14.87;100.00
59757;BME280;45631;51.962;5.974;2023-08-06T01:29:19;100260.81;;;14.84;100.00
59757;BME280;45631;51.962;5.974;2023-08-06T01:31:52;100265.41;;;14.92;100.00
59757;BME280;45631;51.962;5.974;2023-08-06T01:34:23;100267.34;;;14.90;100.00
59757;BME280;45631;51.962;5.974;2023-08-06T01:36:54;100263.63;;;14.82;100.00
59757;BME280;45631;51.962;5.974;2023-08-06T01:39:22;100255.53;;;14.84;100.00
59757;BME280;45631;51.962;5.974;2023-08-06T01:41:50;100260.00;;;14.83;100.00
59757;BME280;45631;51.962;5.974;2023-08-06T01:44:19;100262.75;;;14.82;100.00
59757;BME280;45631;51.962;5.974;2023-08-06T01:46:47;100259.16;;;14.83;100.00
59757;BME280;45631;51.962;5.974;2023-08-06T01:49:16;100262.09;;;14.80;100.00
59757;BME280;45631;51.962;5.974;2023-08-06T01:51:44;100256.34;;;14.84;100.00
59757;BME280;45631;51.962;5.974;2023-08-06T01:54:14;100257.47;;;14.82;100.00
59757;BME280;45631;51.962;5.974;2023-08-06T01:56:42;100256.50;;;14.83;100.00
59757;BME280;45631;51.962;5.974;2023-08-06T01:59:10;100252.72;;;14.85;100.00
59757;BME280;45631;51.962;5.974;2023-08-06T02:01:41;100257.22;;;14.85;100.00
59757;BME280;45631;51.962;5.974;2023-08-06T02:04:10;100260.00;;;14.83;100.00
59757;BME280;45631;51.962;5.974;2023-08-06T02:06:38;100258.31;;;14.82;100.00
59757;BME280;45631;51.962;5.974;2023-08-06T02:09:06;100250.09;;;14.76;100.00
59757;BME280;45631;51.962;5.974;2023-08-06T02:11:36;100255.25;;;14.77;100.00
59757;BME280;45631;51.962;5.974;2023-08-06T02:14:07;100255.97;;;14.79;100.00
59757;BME280;45631;51.962;5.974;2023-08-06T02:16:35;100257.75;;;14.79;100.00
59757;BME280;45631;51.962;5.974;2023-08-06T02:19:04;100259.72;;;14.86;100.00
59757;BME280;45631;51.962;5.974;2023-08-06T02:21:32;100258.28;;;14.92;100.00
59757;BME280;45631;51.962;5.974;2023-08-06T02:24:01;100249.53;;;14.82;100.00
59757;BME280;45631;51.962;5.974;2023-08-06T02:26:30;100251.47;;;14.90;100.00
59757;BME280;45631;51.962;5.974;2023-08-06T02:28:59;100249.13;;;14.77;100.00
59757;BME280;45631;51.962;5.974;2023-08-06T02:31:28;100242.59;;;14.81;100.00
59757;BME280;45631;51.962;5.974;2023-08-06T02:33:56;100230.88;;;14.83;100.00
59757;BME280;45631;51.962;5.974;2023-08-06T02:36:25;100236.69;;;14.87;100.00
59757;BME280;45631;51.962;5.974;2023-08-06T02:38:56;100242.72;;;14.79;100.00
59757;BME280;45631;51.962;5.974;2023-08-06T02:41:24;100236.88;;;14.76;100.00
59757;BME280;45631;51.962;5.974;2023-08-06T02:43:52;100237.97;;;14.83;100.00
59757;BME280;45631;51.962;5.974;2023-08-06T02:46:22;100237.69;;;14.86;100.00
59757;BME280;45631;51.962;5.974;2023-08-06T02:48:50;100233.25;;;14.77;100.00
59757;BME280;45631;51.962;5.974;2023-08-06T02:51:19;100224.75;;;14.73;100.00
59757;BME280;45631;51.962;5.974;2023-08-06T02:53:48;100227.97;;;14.77;100.00
59757;BME280;45631;51.962;5.974;2023-08-06T02:56:16;100221.41;;;14.81;100.00
59757;BME280;45631;51.962;5.974;2023-08-06T02:58:44;100221.00;;;14.76;100.00
59757;BME280;45631;51.962;5.974;2023-08-06T03:01:13;100222.69;;;14.77;100.00
59757;BME280;45631;51.962;5.974;2023-08-06T03:03:43;100227.81;;;14.78;100.00
59757;BME280;45631;51.962;5.974;2023-08-06T03:06:11;100225.84;;;14.80;100.00
59757;BME280;45631;51.962;5.974;2023-08-06T03:08:40;100218.06;;;14.69;100.00
59757;BME280;45631;51.962;5.974;2023-08-06T03:11:08;100225.59;;;14.83;100.00
59757;BME280;45631;51.962;5.974;2023-08-06T03:13:36;100222.94;;;14.83;100.00
59757;BME280;45631;51.962;5.974;2023-08-06T03:16:04;100223.19;;;14.80;100.00
59757;BME280;45631;51.962;5.974;2023-08-06T03:18:33;100214.28;;;14.81;100.00
59757;BME280;45631;51.962;5.974;2023-08-06T03:21:03;100212.47;;;14.82;100.00
59757;BME280;45631;51.962;5.974;2023-08-06T03:23:31;100217.09;;;14.80;100.00
59757;BME280;45631;51.962;5.974;2023-08-06T03:26:01;100216.78;;;14.83;100.00
59757;BME280;45631;51.962;5.974;2023-08-06T03:28:29;100216.66;;;14.84;100.00
59757;BME280;45631;51.962;5.974;2023-08-06T03:31:01;100213.19;;;14.84;100.00
59757;BME280;45631;51.962;5.974;2023-08-06T03:33:29;100213.31;;;14.82;100.00
59757;BME280;45631;51.962;5.974;2023-08-06T03:35:58;100209.81;;;14.82;100.00
59757;BME280;45631;51.962;5.974;2023-08-06T03:38:27;100216.66;;;14.84;100.00
59757;BME280;45631;51.962;5.974;2023-08-06T03:40:55;100214.69;;;14.86;100.00
59757;BME280;45631;51.962;5.974;2023-08-06T03:43:24;100215.53;;;14.87;100.00
59757;BME280;45631;51.962;5.974;2023-08-06T03:45:54;100209.13;;;14.90;100.00
59757;BME280;45631;51.962;5.974;2023-08-06T03:48:23;100208.56;;;14.86;100.00
59757;BME280;45631;51.962;5.974;2023-08-06T03:50:51;100202.44;;;14.85;100.00
59757;BME280;45631;51.962;5.974;2023-08-06T03:53:19;100212.06;;;14.86;100.00
59757;BME280;45631;51.962;5.974;2023-08-06T03:55:49;100207.59;;;14.87;100.00
59757;BME280;45631;51.962;5.974;2023-08-06T03:58:17;100213.16;;;14.94;100.00
59757;BME280;45631;51.962;5.974;2023-08-06T04:00:45;100214.56;;;14.88;100.00
59757;BME280;45631;51.962;5.974;2023-08-06T04:03:14;100217.34;;;14.86;100.00
59757;BME280;45631;51.962;5.974;2023-08-06T04:05:42;100208.28;;;14.89;100.00
59757;BME280;45631;51.962;5.974;2023-08-06T04:08:11;100207.28;;;14.90;100.00
59757;BME280;45631;51.962;5.974;2023-08-06T04:10:39;100217.06;;;14.90;100.00
59757;BME280;45631;51.962;5.974;2023-08-06T04:13:09;100210.94;;;14.89;100.00
59757;BME280;45631;51.962;5.974;2023-08-06T04:15:37;100213.03;;;14.85;100.00
59757;BME280;45631;51.962;5.974;2023-08-06T04:18:05;100214.28;;;14.81;100.00
59757;BME280;45631;51.962;5.974;2023-08-06T04:20:34;100211.34;;;14.84;100.00
59757;BME280;45631;51.962;5.974;2023-08-06T04:23:05;100222.53;;;14.78;100.00
59757;BME280;45631;51.962;5.974;2023-08-06T04:25:34;100223.31;;;14.88;100.00
59757;BME280;45631;51.962;5.974;2023-08-06T04:28:02;100219.28;;;14.84;100.00
59757;BME280;45631;51.962;5.974;2023-08-06T04:30:32;100213.84;;;14.86;100.00
59757;BME280;45631;51.962;5.974;2023-08-06T04:33:00;100217.66;;;14.83;100.00
59757;BME280;45631;51.962;5.974;2023-08-06T04:35:28;100212.88;;;14.87;100.00
59757;BME280;45631;51.962;5.974;2023-08-06T04:37:57;100220.13;;;14.95;100.00
59757;BME280;45631;51.962;5.974;2023-08-06T04:40:25;100223.44;;;14.97;100.00
59757;BME280;45631;51.962;5.974;2023-08-06T04:42:53;100223.31;;;14.98;100.00
59757;BME280;45631;51.962;5.974;2023-08-06T04:45:21;100215.66;;;14.95;100.00
59757;BME280;45631;51.962;5.974;2023-08-06T04:47:52;100221.34;;;15.00;100.00
59757;BME280;45631;51.962;5.974;2023-08-06T04:50:23;100223.19;;;15.00;100.00
59757;BME280;45631;51.962;5.974;2023-08-06T04:52:51;100234.88;;;14.97;100.00
59757;BME280;45631;51.962;5.974;2023-08-06T04:55:19;100232.91;;;14.99;100.00
59757;BME280;45631;51.962;5.974;2023-08-06T04:57:48;100228.31;;;15.01;100.00
59757;BME280;45631;51.962;5.974;2023-08-06T05:00:16;100229.00;;;15.03;100.00
59757;BME280;45631;51.962;5.974;2023-08-06T05:02:44;100234.25;;;15.13;100.00
59757;BME280;45631;51.962;5.974;2023-08-06T05:05:14;100239.56;;;15.13;100.00
59757;BME280;45631;51.962;5.974;2023-08-06T05:07:43;100235.53;;;15.19;100.00
59757;BME280;45631;51.962;5.974;2023-08-06T05:10:11;100240.38;;;15.24;100.00
59757;BME280;45631;51.962;5.974;2023-08-06T05:12:39;100237.88;;;15.22;100.00
59757;BME280;45631;51.962;5.974;2023-08-06T05:15:08;100231.31;;;15.26;100.00
59757;BME280;45631;51.962;5.974;2023-08-06T05:17:36;100236.44;;;15.28;100.00
59757;BME280;45631;51.962;5.974;2023-08-06T05:20:06;100239.41;;;15.25;100.00
59757;BME280;45631;51.962;5.974;2023-08-06T05:22:35;100239.25;;;15.26;100.00
59757;BME280;45631;51.962;5.974;2023-08-06T05:25:05;100247.19;;;15.26;100.00
59757;BME280;45631;51.962;5.974;2023-08-06T05:27:33;100251.91;;;15.32;100.00
59757;BME280;45631;51.962;5.974;2023-08-06T05:30:01;100247.03;;;15.28;100.00
59757;BME280;45631;51.962;5.974;2023-08-06T05:32:30;100258.19;;;15.31;100.00
59757;BME280;45631;51.962;5.974;2023-08-06T05:34:58;100253.56;;;15.33;100.00
59757;BME280;45631;51.962;5.974;2023-08-06T05:37:27;100260.84;;;15.31;100.00
59757;BME280;45631;51.962;5.974;2023-08-06T05:39:56;100262.53;;;15.23;100.00
59757;BME280;45631;51.962;5.974;2023-08-06T05:42:25;100271.81;;;15.36;100.00
59757;BME280;45631;51.962;5.974;2023-08-06T05:44:56;100267.69;;;15.34;100.00
59757;BME280;45631;51.962;5.974;2023-08-06T05:47:25;100267.78;;;15.32;100.00
59757;BME280;45631;51.962;5.974;2023-08-06T05:49:53;100273.22;;;15.41;100.00
59757;BME280;45631;51.962;5.974;2023-08-06T05:52:21;100272.94;;;15.44;100.00
59757;BME280;45631;51.962;5.974;2023-08-06T05:54:50;100276.56;;;15.43;100.00
59757;BME280;45631;51.962;5.974;2023-08-06T05:57:20;100278.38;;;15.42;100.00
59757;BME280;45631;51.962;5.974;2023-08-06T05:59:48;100275.88;;;15.41;100.00
59757;BME280;45631;51.962;5.974;2023-08-06T06:02:16;100278.78;;;15.37;100.00
59757;BME280;45631;51.962;5.974;2023-08-06T06:04:45;100274.31;;;15.48;100.00
59757;BME280;45631;51.962;5.974;2023-08-06T06:07:14;100282.31;;;15.38;100.00
59757;BME280;45631;51.962;5.974;2023-08-06T06:09:42;100289.69;;;15.34;100.00
59757;BME280;45631;51.962;5.974;2023-08-06T06:12:11;100296.53;;;15.37;100.00
59757;BME280;45631;51.962;5.974;2023-08-06T06:14:40;100284.50;;;15.43;100.00
59757;BME280;45631;51.962;5.974;2023-08-06T06:17:09;100300.03;;;15.28;100.00
59757;BME280;45631;51.962;5.974;2023-08-06T06:19:37;100299.72;;;15.31;100.00
59757;BME280;45631;51.962;5.974;2023-08-06T06:22:05;100304.63;;;15.35;100.00
59757;BME280;45631;51.962;5.974;2023-08-06T06:24:34;100306.97;;;15.38;100.00
59757;BME280;45631;51.962;5.974;2023-08-06T06:27:03;100307.53;;;15.42;100.00
59757;BME280;45631;51.962;5.974;2023-08-06T06:29:31;100316.97;;;15.54;100.00
59757;BME280;45631;51.962;5.974;2023-08-06T06:32:01;100320.44;;;15.55;100.00
59757;BME280;45631;51.962;5.974;2023-08-06T06:34:29;100313.91;;;15.49;100.00
59757;BME280;45631;51.962;5.974;2023-08-06T06:36:57;100322.63;;;15.60;100.00
59757;BME280;45631;51.962;5.974;2023-08-06T06:39:26;100321.09;;;15.67;100.00
59757;BME280;45631;51.962;5.974;2023-08-06T06:41:54;100325.59;;;15.57;100.00
59757;BME280;45631;51.962;5.974;2023-08-06T06:44:22;100321.41;;;15.64;100.00
59757;BME280;45631;51.962;5.974;2023-08-06T06:46:51;100333.38;;;15.68;100.00
59757;BME280;45631;51.962;5.974;2023-08-06T06:49:20;100327.53;;;15.64;100.00
59757;BME280;45631;51.962;5.974;2023-08-06T06:51:49;100329.31;;;15.74;100.00
59757;BME280;45631;51.962;5.974;2023-08-06T06:54:17;100324.69;;;15.76;100.00
59757;BME280;45631;51.962;5.974;2023-08-06T06:56:46;100325.22;;;15.79;100.00
59757;BME280;45631;51.962;5.974;2023-08-06T06:59:14;100326.88;;;15.90;100.00
59757;BME280;45631;51.962;5.974;2023-08-06T07:01:42;100332.03;;;15.92;100.00
59757;BME280;45631;51.962;5.974;2023-08-06T07:04:11;100334.63;;;16.01;100.00
59757;BME280;45631;51.962;5.974;2023-08-06T07:06:40;100332.28;;;15.98;100.00
59757;BME280;45631;51.962;5.974;2023-08-06T07:09:09;100335.75;;;15.99;100.00
59757;BME280;45631;51.962;5.974;2023-08-06T07:11:37;100340.34;;;16.07;100.00
59757;BME280;45631;51.962;5.974;2023-08-06T07:14:05;100333.59;;;16.12;100.00
59757;BME280;45631;51.962;5.974;2023-08-06T07:16:33;100347.78;;;16.21;100.00
59757;BME280;45631;51.962;5.974;2023-08-06T07:19:02;100341.66;;;16.20;100.00
59757;BME280;45631;51.962;5.974;2023-08-06T07:21:31;100343.19;;;16.23;100.00
59757;BME280;45631;51.962;5.974;2023-08-06T07:24:02;100347.59;;;16.32;100.00
59757;BME280;45631;51.962;5.974;2023-08-06T07:26:30;100350.56;;;16.29;100.00
59757;BME280;45631;51.962;5.974;2023-08-06T07:28:59;100348.81;;;16.38;100.00
59757;BME280;45631;51.962;5.974;2023-08-06T07:31:27;100353.38;;;16.46;100.00
59757;BME280;45631;51.962;5.974;2023-08-06T07:33:55;100357.53;;;16.48;100.00
59757;BME280;45631;51.962;5.974;2023-08-06T07:36:23;100353.06;;;16.49;100.00
59757;BME280;45631;51.962;5.974;2023-08-06T07:38:52;100357.09;;;16.53;100.00
59757;BME280;45631;51.962;5.974;2023-08-06T07:41:26;100368.44;;;16.63;100.00
59757;BME280;45631;51.962;5.974;2023-08-06T07:43:55;100369.16;;;16.65;100.00
59757;BME280;45631;51.962;5.974;2023-08-06T07:46:23;100365.81;;;16.63;100.00
59757;BME280;45631;51.962;5.974;2023-08-06T07:48:52;100369.75;;;16.59;100.00
59757;BME280;45631;51.962;5.974;2023-08-06T07:51:20;100365.53;;;16.66;100.00
59757;BME280;45631;51.962;5.974;2023-08-06T07:53:48;100369.53;;;16.70;100.00
59757;BME280;45631;51.962;5.974;2023-08-06T07:56:16;100363.38;;;16.70;100.00
59757;BME280;45631;51.962;5.974;2023-08-06T07:58:46;100366.72;;;16.72;100.00
59757;BME280;45631;51.962;5.974;2023-08-06T08:01:15;100364.06;;;16.72;100.00
59757;BME280;45631;51.962;5.974;2023-08-06T08:03:43;100359.50;;;16.82;100.00
59757;BME280;45631;51.962;5.974;2023-08-06T08:06:12;100364.31;;;16.79;100.00
59757;BME280;45631;51.962;5.974;2023-08-06T08:08:41;100357.69;;;16.83;100.00
59757;BME280;45631;51.962;5.974;2023-08-06T08:11:09;100365.78;;;16.91;100.00
59757;BME280;45631;51.962;5.974;2023-08-06T08:13:38;100357.84;;;16.81;100.00
59757;BME280;45631;51.962;5.974;2023-08-06T08:16:07;100366.72;;;16.72;100.00
59757;BME280;45631;51.962;5.974;2023-08-06T08:18:36;100360.47;;;16.91;100.00
59757;BME280;45631;51.962;5.974;2023-08-06T08:21:04;100362.69;;;16.86;100.00
59757;BME280;45631;51.962;5.974;2023-08-06T08:23:32;100378.78;;;16.84;100.00
59757;BME280;45631;51.962;5.974;2023-08-06T08:26:01;100362.84;;;16.84;100.00
59757;BME280;45631;51.962;5.974;2023-08-06T08:28:30;100370.94;;;16.93;100.00
59757;BME280;45631;51.962;5.974;2023-08-06T08:30:59;100366.22;;;17.04;100.00
59757;BME280;45631;51.962;5.974;2023-08-06T08:33:28;100370.63;;;16.96;100.00
59757;BME280;45631;51.962;5.974;2023-08-06T08:35:57;100373.19;;;17.05;100.00
59757;BME280;45631;51.962;5.974;2023-08-06T08:38:25;100367.25;;;17.12;100.00
59757;BME280;45631;51.962;5.974;2023-08-06T08:40:54;100369.44;;;17.16;100.00
59757;BME280;45631;51.962;5.974;2023-08-06T08:43:23;100376.84;;;17.04;100.00
59757;BME280;45631;51.962;5.974;2023-08-06T08:45:52;100372.88;;;16.90;100.00
59757;BME280;45631;51.962;5.974;2023-08-06T08:48:22;100367.19;;;17.03;100.00
59757;BME280;45631;51.962;5.974;2023-08-06T08:50:52;100370.78;;;16.94;100.00
59757;BME280;45631;51.962;5.974;2023-08-06T08:53:21;100374.25;;;17.13;100.00
59757;BME280;45631;51.962;5.974;2023-08-06T08:55:50;100379.69;;;17.29;100.00
59757;BME280;45631;51.962;5.974;2023-08-06T08:58:18;100375.94;;;17.40;100.00
59757;BME280;45631;51.962;5.974;2023-08-06T09:00:47;100376.81;;;17.49;100.00
59757;BME280;45631;51.962;5.974;2023-08-06T09:03:16;100376.09;;;17.38;100.00
59757;BME280;45631;51.962;5.974;2023-08-06T09:05:48;100386.09;;;17.45;100.00
59757;BME280;45631;51.962;5.974;2023-08-06T09:08:24;100379.84;;;17.54;100.00
59757;BME280;45631;51.962;5.974;2023-08-06T09:10:55;100380.44;;;17.66;100.00
59757;BME280;45631;51.962;5.974;2023-08-06T09:13:25;100373.00;;;17.78;100.00
59757;BME280;45631;51.962;5.974;2023-08-06T09:15:53;100380.34;;;17.84;100.00
59757;BME280;45631;51.962;5.974;2023-08-06T09:18:25;100378.69;;;17.83;100.00
59757;BME280;45631;51.962;5.974;2023-08-06T09:20:55;100385.88;;;17.90;100.00
59757;BME280;45631;51.962;5.974;2023-08-06T09:23:28;100386.09;;;17.97;100.00
59757;BME280;45631;51.962;5.974;2023-08-06T09:25:58;100391.88;;;17.93;100.00
59757;BME280;45631;51.962;5.974;2023-08-06T09:28:36;100395.06;;;17.96;100.00
59757;BME280;45631;51.962;5.974;2023-08-06T09:31:05;100400.16;;;17.89;100.00
59757;BME280;45631;51.962;5.974;2023-08-06T09:33:36;100395.13;;;17.78;100.00
59757;BME280;45631;51.962;5.974;2023-08-06T09:36:08;100400.38;;;17.96;100.00
59757;BME280;45631;51.962;5.974;2023-08-06T09:38:41;100402.72;;;17.99;100.00
59757;BME280;45631;51.962;5.974;2023-08-06T09:41:09;100405.38;;;17.99;100.00
59757;BME280;45631;51.962;5.974;2023-08-06T09:43:41;100409.22;;;18.05;100.00
59757;BME280;45631;51.962;5.974;2023-08-06T09:46:13;100407.38;;;17.97;100.00
59757;BME280;45631;51.962;5.974;2023-08-06T09:48:47;100408.44;;;18.13;100.00
59757;BME280;45631;51.962;5.974;2023-08-06T09:51:16;100405.13;;;18.11;100.00
59757;BME280;45631;51.962;5.974;2023-08-06T09:53:47;100408.38;;;17.96;100.00
59757;BME280;45631;51.962;5.974;2023-08-06T09:56:17;100412.38;;;18.00;100.00
59757;BME280;45631;51.962;5.974;2023-08-06T09:58:47;100414.28;;;17.64;100.00
59757;BME280;45631;51.962;5.974;2023-08-06T10:01:18;100410.75;;;17.55;100.00
59757;BME280;45631;51.962;5.974;2023-08-06T10:03:49;100413.09;;;17.58;100.00
59757;BME280;45631;51.962;5.974;2023-08-06T10:06:20;100419.03;;;17.52;100.00
59757;BME280;45631;51.962;5.974;2023-08-06T10:08:50;100411.31;;;17.40;100.00
59757;BME280;45631;51.962;5.974;2023-08-06T10:11:21;100415.44;;;17.35;100.00
59757;BME280;45631;51.962;5.974;2023-08-06T10:13:55;100421.75;;;17.16;100.00
59757;BME280;45631;51.962;5.974;2023-08-06T10:16:26;100429.81;;;17.06;100.00
59757;BME280;45631;51.962;5.974;2023-08-06T10:18:56;100427.22;;;17.14;100.00
59757;BME280;45631;51.962;5.974;2023-08-06T10:21:25;100429.78;;;16.88;100.00
59757;BME280;45631;51.962;5.974;2023-08-06T10:23:56;100433.44;;;16.59;100.00
59757;BME280;45631;51.962;5.974;2023-08-06T10:26:25;100433.41;;;16.41;100.00
59757;BME280;45631;51.962;5.974;2023-08-06T10:28:54;100426.00;;;16.17;100.00
59757;BME280;45631;51.962;5.974;2023-08-06T10:31:54;100427.88;;;16.07;100.00
59757;BME280;45631;51.962;5.974;2023-08-06T10:34:22;100423.63;;;16.14;100.00
59757;BME280;45631;51.962;5.974;2023-08-06T10:36:54;100425.63;;;16.12;100.00
59757;BME280;45631;51.962;5.974;2023-08-06T10:39:23;100436.13;;;16.03;100.00
59757;BME280;45631;51.962;5.974;2023-08-06T10:41:57;100431.09;;;16.00;100.00
59757;BME280;45631;51.962;5.974;2023-08-06T10:44:26;100450.97;;;15.77;100.00
59757;BME280;45631;51.962;5.974;2023-08-06T10:47:26;100457.84;;;15.40;100.00
59757;BME280;45631;51.962;5.974;2023-08-06T10:49:55;100469.84;;;15.34;100.00
59757;BME280;45631;51.962;5.974;2023-08-06T10:52:23;100460.06;;;15.35;100.00
59757;BME280;45631;51.962;5.974;2023-08-06T10:54:54;100467.19;;;15.34;100.00
59757;BME280;45631;51.962;5.974;2023-08-06T10:57:23;100459.78;;;15.28;100.00
59757;BME280;45631;51.962;5.974;2023-08-06T10:59:52;100464.25;;;15.28;100.00
59757;BME280;45631;51.962;5.974;2023-08-06T11:02:41;100473.47;;;15.14;100.00
59757;BME280;45631;51.962;5.974;2023-08-06T11:05:11;100468.84;;;15.16;100.00
59757;BME280;45631;51.962;5.974;2023-08-06T11:07:40;100460.63;;;14.99;100.00
59757;BME280;45631;51.962;5.974;2023-08-06T11:10:12;100466.06;;;14.88;100.00
59757;BME280;45631;51.962;5.974;2023-08-06T11:12:40;100467.97;;;14.86;100.00
59757;BME280;45631;51.962;5.974;2023-08-06T11:15:09;100468.25;;;14.73;100.00
59757;BME280;45631;51.962;5.974;2023-08-06T11:17:40;100469.22;;;14.82;100.00
59757;BME280;45631;51.962;5.974;2023-08-06T11:20:09;100480.25;;;14.87;100.00
59757;BME280;45631;51.962;5.974;2023-08-06T11:22:40;100479.81;;;14.82;100.00
59757;BME280;45631;51.962;5.974;2023-08-06T11:25:09;100479.81;;;14.82;100.00
59757;BME280;45631;51.962;5.974;2023-08-06T11:27:38;100478.31;;;14.79;100.00
59757;BME280;45631;51.962;5.974;2023-08-06T11:30:07;100486.91;;;14.72;100.00
59757;BME280;45631;51.962;5.974;2023-08-06T11:32:44;100494.31;;;14.78;100.00
59757;BME280;45631;51.962;5.974;2023-08-06T11:35:14;100499.59;;;14.78;100.00
59757;BME280;45631;51.962;5.974;2023-08-06T11:37:46;100500.44;;;14.68;100.00
59757;BME280;45631;51.962;5.974;2023-08-06T11:40:16;100496.53;;;14.73;100.00
59757;BME280;45631;51.962;5.974;2023-08-06T11:42:46;100500.25;;;14.60;100.00
59757;BME280;45631;51.962;5.974;2023-08-06T11:45:15;100501.22;;;14.59;100.00
59757;BME280;45631;51.962;5.974;2023-08-06T11:47:50;100504.44;;;14.63;100.00
59757;BME280;45631;51.962;5.974;2023-08-06T11:50:22;100509.00;;;14.61;100.00
59757;BME280;45631;51.962;5.974;2023-08-06T11:52:53;100516.56;;;14.65;100.00
59757;BME280;45631;51.962;5.974;2023-08-06T11:55:25;100511.97;;;14.67;100.00
59757;BME280;45631;51.962;5.974;2023-08-06T11:57:53;100513.38;;;14.72;100.00
59757;BME280;45631;51.962;5.974;2023-08-06T12:00:23;100516.03;;;14.72;100.00
59757;BME280;45631;51.962;5.974;2023-08-06T12:02:52;100524.94;;;14.70;100.00
59757;BME280;45631;51.962;5.974;2023-08-06T12:05:23;100528.63;;;14.58;100.00
59757;BME280;45631;51.962;5.974;2023-08-06T12:07:53;100535.16;;;14.54;100.00
59757;BME280;45631;51.962;5.974;2023-08-06T12:10:24;100534.72;;;14.49;100.00
59757;BME280;45631;51.962;5.974;2023-08-06T12:12:53;100538.91;;;14.51;100.00
59757;BME280;45631;51.962;5.974;2023-08-06T12:15:22;100543.50;;;14.49;100.00
59757;BME280;45631;51.962;5.974;2023-08-06T12:17:51;100552.09;;;14.42;100.00
59757;BME280;45631;51.962;5.974;2023-08-06T12:20:19;100555.84;;;14.39;100.00
59757;BME280;45631;51.962;5.974;2023-08-06T12:22:48;100551.09;;;14.33;100.00
59757;BME280;45631;51.962;5.974;2023-08-06T12:25:16;100548.97;;;14.27;100.00
59757;BME280;45631;51.962;5.974;2023-08-06T12:27:48;100562.06;;;14.28;100.00
59757;BME280;45631;51.962;5.974;2023-08-06T12:30:16;100557.72;;;14.27;100.00
59757;BME280;45631;51.962;5.974;2023-08-06T12:32:45;100554.13;;;14.28;100.00
59757;BME280;45631;51.962;5.974;2023-08-06T12:35:13;100554.66;;;14.22;100.00
59757;BME280;45631;51.962;5.974;2023-08-06T12:37:42;100558.25;;;14.21;100.00
59757;BME280;45631;51.962;5.974;2023-08-06T12:40:11;100558.25;;;14.21;100.00
59757;BME280;45631;51.962;5.974;2023-08-06T12:42:42;100563.22;;;14.14;100.00
59757;BME280;45631;51.962;5.974;2023-08-06T12:45:12;100558.72;;;14.26;100.00
59757;BME280;45631;51.962;5.974;2023-08-06T12:47:41;100564.56;;;14.30;100.00
59757;BME280;45631;51.962;5.974;2023-08-06T12:50:09;100567.19;;;14.30;100.00
59757;BME280;45631;51.962;5.974;2023-08-06T12:52:38;100583.94;;;14.30;100.00